Time;durP1;ratioP1;P1;durP2;ratioP2;P2;SDS_P1;SDS_P2;PMS_P1;PMS_P2;Temp;Humidity;BMP_temperature;BMP_pressure;BME280_temperature;BME280_humidity;BME280_pressure;Samples;Min_cycle;Max_cycle;Signal;HPM_P1;HPM_P2
2023/04/25 07:38:39;;;;;;;9.88;6.20;;;;;;;9.79;96.08;95440.47;5058489;28;20044;-74
2023/04/25 07:41:04;;;;;;;11.20;6.95;;;;;;;10.67;93.34;95442.72;5031785;28;20043;-75
2023/04/25 07:43:30;;;;;;;8.40;6.78;;;;;;;10.69;91.23;95443.41;5049862;28;20017;-75
2023/04/25 07:45:56;;;;;;;9.88;7.85;;;;;;;10.40;91.62;95452.31;5053007;28;20056;-76
2023/04/25 07:48:21;;;;;;;12.13;8.98;;;;;;;10.24;92.59;95455.50;5052014;28;20020;-74
2023/04/25 07:50:47;;;;;;;7.20;6.50;;;;;;;10.20;92.28;95446.25;5052421;28;20664;-75
2023/04/25 07:53:12;;;;;;;9.52;7.95;;;;;;;10.07;92.95;95445.78;5052732;28;20028;-75
2023/04/25 07:55:39;;;;;;;7.72;6.95;;;;;;;10.34;92.19;95455.47;5053649;28;20052;-75
2023/04/25 07:58:08;;;;;;;7.47;5.30;;;;;;;10.87;90.45;95453.94;5053049;28;20808;-75
2023/04/25 08:00:34;;;;;;;5.95;5.13;;;;;;;11.04;88.04;95454.09;5047860;28;20165;-75
2023/04/25 08:03:00;;;;;;;4.90;4.38;;;;;;;11.68;84.71;95458.38;5054039;28;20151;-75
2023/04/25 08:05:25;;;;;;;6.28;4.70;;;;;;;11.82;83.78;95447.28;5051863;28;20020;-75
2023/04/25 08:07:50;;;;;;;5.63;5.07;;;;;;;11.96;83.27;95459.06;5053517;28;20492;-76
2023/04/25 08:10:16;;;;;;;5.47;4.90;;;;;;;11.77;82.61;95465.38;5051046;28;20095;-75
2023/04/25 08:12:41;;;;;;;6.38;5.72;;;;;;;11.60;81.68;95465.25;5054394;28;20013;-75
2023/04/25 08:15:08;;;;;;;10.25;7.43;;;;;;;11.17;81.51;95473.00;5053372;28;20020;-76
2023/04/25 08:17:33;;;;;;;6.93;5.47;;;;;;;11.02;82.80;95467.41;5052949;28;20017;-79
2023/04/25 08:19:59;;;;;;;6.85;4.50;;;;;;;10.88;84.05;95481.13;5053294;28;20089;-76
2023/04/25 08:22:24;;;;;;;6.85;4.63;;;;;;;10.69;85.62;95482.91;5053721;28;20041;-75
2023/04/25 08:24:50;;;;;;;6.88;6.28;;;;;;;10.26;87.73;95487.78;5051084;28;20111;-75
2023/04/25 08:27:15;;;;;;;6.13;5.55;;;;;;;10.27;86.50;95489.44;5054062;28;20170;-76
2023/04/25 08:29:42;;;;;;;9.55;5.50;;;;;;;10.24;89.26;95494.97;5054409;28;20455;-76
2023/04/25 08:32:07;;;;;;;7.35;6.63;;;;;;;10.22;90.58;95494.31;5049410;28;20026;-76
2023/04/25 08:34:33;;;;;;;10.73;7.47;;;;;;;10.38;89.66;95493.66;5050582;28;20028;-76
2023/04/25 08:36:58;;;;;;;7.30;5.30;;;;;;;10.34;88.68;95494.94;5042972;28;20075;-76
2023/04/25 08:39:24;;;;;;;6.68;5.97;;;;;;;10.45;87.29;95494.81;5053887;28;20517;-75
2023/04/25 08:41:50;;;;;;;9.45;7.15;;;;;;;11.18;86.66;95500.16;5055807;28;20040;-76
2023/04/25 08:44:16;;;;;;;7.95;5.35;;;;;;;12.01;81.39;95490.28;5052625;28;20017;-76
2023/04/25 08:46:45;;;;;;;7.38;4.43;;;;;;;12.02;79.61;95499.84;5054191;28;20035;-76
2023/04/25 08:49:12;;;;;;;11.65;5.15;;;;;;;12.02;80.46;95505.13;5056079;28;20029;-76
2023/04/25 08:51:46;;;;;;;7.30;4.57;;;;;;;12.42;79.29;95508.16;5056725;28;20062;-78
2023/04/25 08:54:13;;;;;;;8.77;4.97;;;;;;;12.89;75.63;95505.00;5066842;28;20025;-77
2023/04/25 08:56:44;;;;;;;5.50;3.85;;;;;;;12.90;71.87;95519.88;5057461;28;20032;-78
2023/04/25 08:59:12;;;;;;;5.40;4.80;;;;;;;12.81;73.47;95539.34;5056359;28;20032;-77
2023/04/25 09:01:37;;;;;;;4.85;4.32;;;;;;;12.93;72.70;95533.75;5052860;28;20025;-79
2023/04/25 09:04:03;;;;;;;5.75;4.35;;;;;;;12.67;73.45;95542.56;5055592;28;20032;-77
2023/04/25 09:06:30;;;;;;;4.88;4.00;;;;;;;12.49;73.57;95537.38;5056709;28;20032;-76
2023/04/25 09:09:03;;;;;;;6.28;4.40;;;;;;;12.08;71.40;95532.72;5057510;28;20461;-77
2023/04/25 09:11:28;;;;;;;5.93;4.68;;;;;;;12.02;73.29;95542.06;5055753;28;20074;-77
2023/04/25 09:14:11;;;;;;;6.72;4.80;;;;;;;11.80;73.46;95551.25;5057174;28;20029;-77
2023/04/25 09:16:56;;;;;;;6.75;5.75;;;;;;;11.60;73.27;95554.06;5055635;28;20037;-76
2023/04/25 09:19:30;;;;;;;9.02;6.20;;;;;;;11.20;71.45;95558.00;5057198;28;20050;-77
2023/04/25 09:21:58;;;;;;;5.22;4.20;;;;;;;11.03;74.11;95555.19;5055755;28;20025;-76
2023/04/25 09:24:51;;;;;;;9.70;7.20;;;;;;;10.63;74.99;95561.63;5055892;28;20040;-76
2023/04/25 09:27:20;;;;;;;7.32;5.70;;;;;;;10.65;76.15;95564.94;5052405;28;20094;-77
2023/04/25 09:29:46;;;;;;;8.73;6.60;;;;;;;10.71;77.31;95564.34;5056337;28;20063;-78
2023/04/25 09:32:15;;;;;;;5.50;4.22;;;;;;;11.40;74.37;95556.03;5057098;28;20608;-78
2023/04/25 09:34:42;;;;;;;6.80;4.93;;;;;;;12.02;68.84;95557.91;5057733;28;20033;-76
2023/04/25 09:37:11;;;;;;;12.30;7.45;;;;;;;12.39;68.75;95553.34;5055339;28;20044;-77
2023/04/25 09:39:37;;;;;;;7.38;6.28;;;;;;;13.10;64.90;95555.78;5054934;28;20041;-77
2023/04/25 09:42:04;;;;;;;8.02;6.85;;;;;;;13.04;66.76;95550.16;5055845;28;20143;-76
2023/04/25 09:44:30;;;;;;;5.55;3.30;;;;;;;13.37;66.62;95556.50;5056594;28;20017;-78
2023/04/25 09:46:56;;;;;;;5.38;3.22;;;;;;;13.57;65.12;95557.03;5056470;28;20569;-78
2023/04/25 09:49:23;;;;;;;4.13;3.60;;;;;;;13.73;67.68;95562.34;5056815;28;20040;-78
2023/04/25 09:51:58;;;;;;;4.65;3.10;;;;;;;13.82;63.68;95560.53;5054599;28;20568;-76
2023/04/25 09:54:25;;;;;;;6.47;3.80;;;;;;;13.56;63.72;95563.31;5054373;28;20507;-79
2023/04/25 09:56:52;;;;;;;3.20;2.90;;;;;;;13.82;62.23;95565.03;5055587;28;20506;-77
2023/04/25 09:59:22;;;;;;;4.95;2.97;;;;;;;13.60;62.84;95565.50;5051482;28;20037;-77
2023/04/25 10:01:49;;;;;;;3.75;3.03;;;;;;;13.42;63.90;95562.13;5052070;28;20033;-77
2023/04/25 10:04:20;;;;;;;4.85;3.00;;;;;;;12.87;62.96;95569.59;5056684;28;20059;-77
2023/04/25 10:06:49;;;;;;;5.57;5.00;;;;;;;12.39;62.98;95570.03;5055027;28;20133;-77
2023/04/25 10:09:15;;;;;;;3.72;3.33;;;;;;;12.41;66.61;95567.22;5056354;28;20032;-77
2023/04/25 10:11:41;;;;;;;5.85;3.70;;;;;;;12.37;68.03;95561.41;5056156;28;20036;-78
2023/04/25 10:14:06;;;;;;;4.18;3.25;;;;;;;12.24;66.55;95558.38;5054371;28;20029;-79
2023/04/25 10:16:32;;;;;;;4.75;3.20;;;;;;;12.23;67.09;95569.91;5054292;28;20044;-77
2023/04/25 10:18:57;;;;;;;7.15;3.38;;;;;;;12.34;66.61;95568.81;5054591;28;20055;-77
2023/04/25 10:21:26;;;;;;;4.18;3.65;;;;;;;12.46;68.24;95562.28;5054543;28;20078;-77
2023/04/25 10:23:53;;;;;;;8.52;5.15;;;;;;;12.67;64.79;95556.63;5055286;28;20569;-77
2023/04/25 10:26:19;;;;;;;6.00;5.20;;;;;;;12.70;65.16;95548.38;5056282;28;20078;-77
2023/04/25 10:29:02;;;;;;;3.97;3.28;;;;;;;12.80;63.26;95556.19;5056211;28;20056;-78
2023/04/25 10:31:31;;;;;;;3.70;3.40;;;;;;;12.83;65.58;95558.50;5055666;28;20056;-77
2023/04/25 10:33:57;;;;;;;3.80;3.50;;;;;;;12.94;63.77;95561.84;5054479;28;20029;-77
2023/04/25 10:36:24;;;;;;;3.78;3.20;;;;;;;12.83;63.35;95555.84;5055685;28;20021;-78
2023/04/25 10:38:51;;;;;;;4.70;4.25;;;;;;;13.01;63.12;95557.56;5053942;28;20052;-78
2023/04/25 10:41:20;;;;;;;10.80;7.00;;;;;;;12.54;63.01;95557.06;5059331;28;20850;-77
2023/04/25 10:43:58;;;;;;;12.88;8.07;;;;;;;12.90;60.53;95571.91;5053936;28;20028;-77
2023/04/25 10:46:34;;;;;;;9.50;6.78;;;;;;;13.67;58.46;95570.13;5054100;28;20120;-78
2023/04/25 10:49:01;;;;;;;3.60;3.30;;;;;;;14.91;57.23;95559.34;5055557;28;20054;-78
2023/04/25 10:51:28;;;;;;;4.93;3.72;;;;;;;15.70;55.12;95563.72;5056114;28;20055;-80
2023/04/25 10:54:07;;;;;;;6.20;3.03;;;;;;;16.51;52.08;95566.84;5055285;28;20047;-79
2023/04/25 10:56:44;;;;;;;3.88;2.63;;;;;;;16.85;49.59;95560.97;5051935;28;20033;-78
2023/04/25 10:59:18;;;;;;;2.47;2.33;;;;;;;16.27;48.72;95553.66;5049656;28;20038;-83
2023/04/25 11:01:48;;;;;;;3.17;2.85;;;;;;;15.26;50.97;95551.91;5054617;28;20045;-85
2023/04/25 11:04:40;;;;;;;5.72;2.92;;;;;;;14.47;53.88;95555.31;5052328;28;20025;-81
2023/04/25 11:07:24;;;;;;;3.83;2.63;;;;;;;14.94;53.31;95551.06;5055187;28;20037;-77
2023/04/25 11:09:49;;;;;;;3.20;2.88;;;;;;;15.29;52.06;95548.06;5048990;28;20033;-83
2023/04/25 11:12:16;;;;;;;4.28;2.90;;;;;;;16.10;50.87;95555.59;5048665;28;20024;-83
2023/04/25 11:14:42;;;;;;;3.50;3.20;;;;;;;16.37;49.64;95552.53;5055697;28;20074;-82
2023/04/25 11:17:07;;;;;;;3.97;2.85;;;;;;;16.89;46.55;95538.31;5055832;28;20135;-80
2023/04/25 11:19:33;;;;;;;3.67;3.08;;;;;;;17.20;45.70;95547.09;5055377;28;20030;-81
2023/04/25 11:22:00;;;;;;;4.32;2.70;;;;;;;17.37;45.74;95536.25;5056089;28;20148;-81
2023/04/25 11:24:34;;;;;;;2.70;2.33;;;;;;;17.72;44.60;95534.56;5055322;28;20070;-82
2023/04/25 11:27:02;;;;;;;2.83;2.63;;;;;;;17.83;43.97;95541.19;5055629;28;20025;-82
2023/04/25 11:29:28;;;;;;;2.53;2.33;;;;;;;18.22;43.10;95530.28;5055732;28;20019;-81
2023/04/25 11:31:58;;;;;;;3.42;2.35;;;;;;;18.52;43.34;95525.56;5055252;28;20116;-83
2023/04/25 11:34:30;;;;;;;3.10;2.80;;;;;;;18.45;41.60;95522.84;5055412;28;20013;-80
2023/04/25 11:36:56;;;;;;;3.70;2.50;;;;;;;17.94;43.59;95529.22;5057178;28;20112;-83
2023/04/25 11:39:23;;;;;;;3.85;2.78;;;;;;;17.99;43.26;95525.97;5055098;28;20080;-84
2023/04/25 11:41:48;;;;;;;2.92;2.30;;;;;;;17.54;43.90;95531.50;5054418;28;20017;-82
2023/04/25 11:44:16;;;;;;;4.50;2.90;;;;;;;17.25;44.52;95530.59;5054401;28;20053;-84
2023/04/25 11:46:42;;;;;;;3.00;2.72;;;;;;;16.72;45.50;95528.94;5047198;28;20053;-81
2023/04/25 11:49:07;;;;;;;2.97;2.58;;;;;;;15.56;46.95;95529.97;5052629;28;20124;-80
2023/04/25 11:51:43;;;;;;;3.22;2.90;;;;;;;14.70;49.53;95531.59;5053523;28;20056;-82
2023/04/25 11:54:08;;;;;;;2.80;2.60;;;;;;;13.68;50.91;95527.63;5052292;28;20125;-84
2023/04/25 11:56:34;;;;;;;4.07;2.70;;;;;;;14.27;52.25;95521.28;5054181;28;20761;-82
2023/04/25 11:59:02;;;;;;;2.60;2.47;;;;;;;16.21;47.57;95514.50;5053691;28;20029;-80
2023/04/25 12:01:36;;;;;;;3.58;3.25;;;;;;;17.17;44.56;95524.38;5051470;28;20027;-80
2023/04/25 12:04:21;;;;;;;3.03;2.45;;;;;;;18.10;42.89;95517.47;5051022;28;20028;-85
2023/04/25 12:06:48;;;;;;;;;;;;;;;18.74;40.10;95514.81;5052560;28;20040;-84
2023/04/25 12:09:18;;;;;;;5.80;4.18;;;;;;;18.88;40.47;95510.34;5053010;28;19920;-85
2023/04/25 12:11:43;;;;;;;2.10;1.98;;;;;;;19.24;37.25;95514.63;5054111;28;20558;-84
2023/04/25 12:14:10;;;;;;;2.80;2.50;;;;;;;18.16;38.52;95510.56;5053845;28;20129;-83
2023/04/25 12:16:46;;;;;;;4.28;2.60;;;;;;;17.58;40.02;95511.50;5050315;28;20024;-83
2023/04/25 12:19:19;;;;;;;2.90;2.67;;;;;;;17.89;41.61;95505.81;5049759;28;20425;-83
2023/04/25 12:21:44;;;;;;;2.60;2.40;;;;;;;18.56;38.84;95500.16;5044807;28;20100;-82
2023/04/25 12:24:13;;;;;;;4.05;2.40;;;;;;;19.58;37.29;95502.16;5053655;28;20078;-85
2023/04/25 12:26:50;;;;;;;2.70;2.50;;;;;;;19.08;37.09;95499.78;5054698;28;20131;-83
2023/04/25 12:29:24;;;;;;;2.50;2.03;;;;;;;19.17;36.28;95495.94;5054750;28;20044;-84
2023/04/25 12:31:51;;;;;;;5.22;2.55;;;;;;;19.59;36.16;95493.13;5057062;28;20029;-84
2023/04/25 12:34:17;;;;;;;2.97;1.92;;;;;;;19.54;33.70;95490.25;5058199;28;20028;-86
2023/04/25 12:36:43;;;;;;;4.90;2.25;;;;;;;20.03;35.14;95485.59;5054565;28;20021;-83
2023/04/25 12:39:08;;;;;;;3.63;2.40;;;;;;;19.67;34.63;95492.13;5053404;28;20079;-84
2023/04/25 12:41:34;;;;;;;2.58;2.22;;;;;;;19.37;35.79;95491.66;5054579;28;20112;-84
2023/04/25 12:43:59;;;;;;;5.95;2.20;;;;;;;18.83;33.71;95492.28;5053496;28;20384;-83
2023/04/25 12:46:25;;;;;;;3.88;2.80;;;;;;;17.56;36.56;95485.06;5054465;28;20017;-85
2023/04/25 12:48:50;;;;;;;2.38;2.03;;;;;;;17.34;36.66;95492.22;5048351;28;20047;-83
2023/04/25 12:51:16;;;;;;;4.03;3.00;;;;;;;16.62;36.54;95486.69;5051983;28;20092;-83
2023/04/25 12:53:41;;;;;;;2.53;2.33;;;;;;;17.79;37.11;95477.88;5045869;28;20013;-83
2023/04/25 12:56:08;;;;;;;3.05;2.75;;;;;;;18.21;34.68;95478.81;5051958;28;20036;-85
2023/04/25 12:58:33;;;;;;;2.53;2.33;;;;;;;18.40;33.32;95481.81;5053717;28;20048;-85
2023/04/25 13:00:59;;;;;;;3.10;2.15;;;;;;;18.69;33.34;95479.94;5054361;28;20025;-83
2023/04/25 13:03:25;;;;;;;5.63;2.15;;;;;;;19.69;32.89;95479.38;5053690;28;20065;-86
2023/04/25 13:05:52;;;;;;;2.63;1.83;;;;;;;20.08;31.64;95478.78;5052223;28;20020;-87
2023/04/25 13:08:20;;;;;;;2.83;1.90;;;;;;;19.27;30.50;95478.69;5054179;28;20485;-86
2023/04/25 13:10:47;;;;;;;4.88;2.00;;;;;;;17.59;31.03;95478.53;5053867;28;20118;-82
2023/04/25 13:13:13;;;;;;;4.07;3.28;;;;;;;17.06;33.51;95471.66;5053924;28;20053;-82
2023/04/25 13:15:38;;;;;;;2.10;1.92;;;;;;;16.10;34.11;95469.81;5053942;28;20033;-85
2023/04/25 13:18:05;;;;;;;5.22;3.83;;;;;;;16.06;35.49;95471.19;5053375;28;20028;-84
2023/04/25 13:20:30;;;;;;;4.88;4.18;;;;;;;15.60;36.34;95483.53;5053068;28;20485;-83
2023/04/25 13:22:56;;;;;;;2.63;2.08;;;;;;;15.53;36.37;95479.91;5042052;28;20024;-82
2023/04/25 13:25:22;;;;;;;4.35;3.35;;;;;;;15.36;36.75;95479.22;5052144;28;20037;-85
2023/04/25 13:27:47;;;;;;;2.95;2.65;;;;;;;16.01;35.71;95477.84;5057465;28;20020;-84
2023/04/25 13:30:13;;;;;;;8.18;5.35;;;;;;;16.45;35.63;95475.41;5063867;28;20039;-85
2023/04/25 13:32:39;;;;;;;3.97;2.58;;;;;;;16.21;35.72;95473.88;5054870;28;20032;-86
2023/04/25 13:35:07;;;;;;;3.47;2.45;;;;;;;16.46;36.33;95475.22;5056987;28;20070;-83
2023/04/25 13:37:32;;;;;;;4.30;2.15;;;;;;;16.34;35.44;95471.38;5056879;28;20078;-85
2023/04/25 13:40:09;;;;;;;3.33;2.38;;;;;;;16.67;35.68;95473.66;5057647;28;20031;-84
2023/04/25 13:42:35;;;;;;;2.97;2.13;;;;;;;16.88;36.33;95466.75;5057407;28;20020;-82
2023/04/25 13:45:01;;;;;;;3.00;2.50;;;;;;;17.00;35.52;95475.91;5051912;28;20425;-83
2023/04/25 13:47:27;;;;;;;4.90;2.63;;;;;;;16.27;35.02;95471.31;5053780;28;20016;-86
2023/04/25 13:49:53;;;;;;;2.50;2.30;;;;;;;15.93;36.73;95467.31;5052237;28;20496;-82
2023/04/25 13:52:18;;;;;;;8.60;2.38;;;;;;;15.97;36.02;95473.09;5056463;28;20044;-81
2023/04/25 13:54:44;;;;;;;5.45;2.50;;;;;;;15.55;36.94;95462.00;5056849;28;20029;-78
2023/04/25 13:57:10;;;;;;;3.30;3.00;;;;;;;15.73;37.02;95470.47;5056986;28;20378;-81
2023/04/25 13:59:36;;;;;;;7.43;2.92;;;;;;;15.10;38.43;95464.50;5057615;28;20031;-81
2023/04/25 14:02:01;;;;;;;2.67;2.47;;;;;;;15.08;37.44;95464.66;5056623;28;20389;-82
2023/04/25 14:04:27;;;;;;;2.50;2.30;;;;;;;15.20;39.69;95458.97;5057085;28;20017;-80
2023/04/25 14:06:53;;;;;;;4.75;2.67;;;;;;;15.59;42.26;95456.16;5056875;28;20027;-84
2023/04/25 14:09:20;;;;;;;3.15;2.60;;;;;;;16.16;38.52;95442.53;5057161;28;20052;-79
2023/04/25 14:11:46;;;;;;;3.45;2.70;;;;;;;16.55;37.90;95446.72;5055196;28;20029;-81
2023/04/25 14:14:12;;;;;;;2.83;2.50;;;;;;;16.22;38.50;95444.44;5050053;28;20570;-80
2023/04/25 14:16:38;;;;;;;3.47;2.40;;;;;;;16.11;38.74;95450.22;5055922;28;20028;-80
2023/04/25 14:19:03;;;;;;;5.07;2.38;;;;;;;15.83;36.84;95450.81;5055769;28;20075;-77
2023/04/25 14:21:32;;;;;;;4.75;2.72;;;;;;;15.54;37.56;95439.13;5056145;28;20074;-79
2023/04/25 14:23:57;;;;;;;7.60;2.47;;;;;;;15.34;37.66;95436.97;5055803;28;20413;-78
2023/04/25 14:26:22;;;;;;;3.17;2.50;;;;;;;15.20;36.51;95441.22;5062977;28;20037;-80
2023/04/25 14:28:48;;;;;;;2.45;2.25;;;;;;;15.38;36.13;95440.09;5049229;28;20079;-80
2023/04/25 14:31:13;;;;;;;7.15;2.53;;;;;;;15.68;36.94;95437.50;5052477;28;20028;-78
2023/04/25 14:33:42;;;;;;;3.35;2.10;;;;;;;15.63;37.57;95446.03;5055575;28;20024;-77
2023/04/25 14:36:07;;;;;;;2.67;2.42;;;;;;;15.68;36.62;95448.94;5056759;28;20082;-81
2023/04/25 14:38:32;;;;;;;2.92;2.63;;;;;;;15.78;36.99;95446.03;5054198;28;20041;-78
2023/04/25 14:40:58;;;;;;;2.97;2.40;;;;;;;15.79;38.17;95434.41;5069291;28;20063;-80
2023/04/25 14:43:23;;;;;;;5.47;2.42;;;;;;;15.69;36.49;95434.69;5056402;28;20104;-81
2023/04/25 14:45:49;;;;;;;3.47;2.15;;;;;;;15.37;38.74;95426.00;5053199;28;20022;-79
2023/04/25 14:48:15;;;;;;;2.67;2.45;;;;;;;15.51;38.19;95431.53;5053507;28;20025;-81
2023/04/25 14:50:40;;;;;;;2.05;1.95;;;;;;;15.85;37.83;95416.97;5056295;28;20021;-78
2023/04/25 14:53:06;;;;;;;2.50;2.40;;;;;;;15.93;40.19;95432.81;5054533;28;20032;-86
2023/04/25 14:55:31;;;;;;;5.80;2.38;;;;;;;16.02;38.17;95434.38;5053630;28;20148;-82
2023/04/25 14:57:57;;;;;;;2.63;2.42;;;;;;;16.11;37.45;95437.75;5054765;28;20063;-79
2023/04/25 15:00:22;;;;;;;2.22;2.00;;;;;;;15.95;36.75;95443.25;5049508;28;20443;-87
2023/04/25 15:02:51;;;;;;;5.72;2.30;;;;;;;15.87;36.50;95446.78;5066451;28;20033;-83
2023/04/25 15:05:17;;;;;;;2.83;2.33;;;;;;;15.62;36.42;95436.41;5055855;28;20060;-81
2023/04/25 15:07:43;;;;;;;4.90;2.40;;;;;;;15.89;35.72;95439.50;5055512;28;20067;-87
2023/04/25 15:10:13;;;;;;;5.40;2.50;;;;;;;15.73;35.46;95443.91;5055809;28;20048;-84
2023/04/25 15:12:47;;;;;;;2.83;2.30;;;;;;;15.40;36.18;95433.63;5055904;28;20020;-79
2023/04/25 15:15:13;;;;;;;4.20;2.40;;;;;;;15.34;38.21;95436.97;5055621;28;20036;-84
2023/04/25 15:17:41;;;;;;;3.65;2.40;;;;;;;15.43;37.21;95433.25;5055107;28;20377;-85
2023/04/25 15:20:10;;;;;;;4.60;2.80;;;;;;;15.50;39.34;95432.53;5053951;28;20124;-81
2023/04/25 15:22:41;;;;;;;2.83;2.55;;;;;;;15.57;38.57;95428.97;5057277;28;20025;-83
2023/04/25 15:25:07;;;;;;;2.65;2.40;;;;;;;15.51;37.87;95437.66;5053416;28;20021;-80
2023/04/25 15:27:39;;;;;;;2.90;2.65;;;;;;;15.36;38.66;95420.88;5055384;28;20044;-85
2023/04/25 15:30:10;;;;;;;3.88;3.40;;;;;;;15.04;39.28;95413.84;5051960;28;20056;-78
2023/04/25 15:32:37;;;;;;;4.80;2.53;;;;;;;14.96;38.09;95421.00;5056953;28;20021;-80
2023/04/25 15:35:05;;;;;;;3.10;2.50;;;;;;;14.72;38.62;95413.03;5056195;28;20370;-89
2023/04/25 15:37:30;;;;;;;2.95;2.78;;;;;;;14.83;38.83;95427.69;5056382;28;20112;-84
2023/04/25 15:40:08;;;;;;;2.83;2.63;;;;;;;14.84;38.97;95425.91;5056972;28;20052;-86
2023/04/25 15:42:52;;;;;;;5.10;2.80;;;;;;;14.93;41.40;95418.72;5051345;28;20056;-82
2023/04/25 15:45:20;;;;;;;3.30;2.30;;;;;;;15.06;39.27;95429.53;5052248;28;20017;-80
2023/04/25 15:47:46;;;;;;;8.35;3.00;;;;;;;15.01;39.24;95427.41;5050217;28;20029;-86
2023/04/25 15:50:13;;;;;;;3.20;2.53;;;;;;;15.14;39.42;95421.56;5053946;28;20028;-81
2023/04/25 15:52:39;;;;;;;3.03;2.63;;;;;;;15.11;39.98;95421.88;5053064;28;20446;-83
2023/04/25 15:55:06;;;;;;;3.20;2.40;;;;;;;15.12;38.74;95423.53;5051254;28;20043;-77
2023/04/25 15:57:35;;;;;;;2.92;2.50;;;;;;;15.02;40.52;95428.25;5050885;28;20025;-78
2023/04/25 16:00:04;;;;;;;5.47;2.85;;;;;;;15.19;39.56;95428.94;5059420;28;20025;-81
2023/04/25 16:02:29;;;;;;;3.60;2.47;;;;;;;15.15;38.24;95428.50;5054992;28;20055;-78
2023/04/25 16:04:55;;;;;;;2.60;2.40;;;;;;;14.84;40.06;95432.00;5056789;28;20033;-81
2023/04/25 16:07:20;;;;;;;4.65;2.92;;;;;;;14.58;40.94;95433.09;5052686;28;20036;-83
2023/04/25 16:09:45;;;;;;;3.15;2.60;;;;;;;14.82;39.71;95428.69;5055926;28;20039;-79
2023/04/25 16:12:13;;;;;;;4.60;2.67;;;;;;;14.66;39.89;95434.06;5052098;28;20025;-81
2023/04/25 16:14:38;;;;;;;2.30;2.20;;;;;;;14.41;40.19;95439.47;5050182;28;20060;-77
2023/04/25 16:17:04;;;;;;;6.30;2.53;;;;;;;14.32;41.50;95446.63;5051100;28;20040;-79
2023/04/25 16:19:29;;;;;;;2.83;2.25;;;;;;;14.49;42.89;95454.50;5055397;28;20385;-78
2023/04/25 16:21:55;;;;;;;3.05;2.58;;;;;;;14.53;42.95;95446.06;5050270;28;20055;-76
2023/04/25 16:24:20;;;;;;;6.45;2.88;;;;;;;14.60;43.29;95447.00;5050394;28;20373;-78
2023/04/25 16:26:45;;;;;;;5.85;2.28;;;;;;;14.51;41.42;95448.06;5053959;28;20108;-76
2023/04/25 16:29:13;;;;;;;5.82;2.30;;;;;;;14.46;43.18;95453.03;5052243;28;20080;-77
2023/04/25 16:31:39;;;;;;;5.15;2.70;;;;;;;14.30;41.18;95454.75;5051762;28;20543;-82
2023/04/25 16:34:04;;;;;;;4.50;2.53;;;;;;;14.24;41.04;95458.06;5053702;28;20029;-83
2023/04/25 16:36:33;;;;;;;2.58;2.38;;;;;;;14.24;41.97;95458.06;5056566;28;20079;-81
2023/04/25 16:38:59;;;;;;;5.40;2.50;;;;;;;14.10;43.01;95458.78;5055308;28;20049;-82
2023/04/25 16:41:26;;;;;;;3.33;2.55;;;;;;;14.07;42.56;95456.50;5055238;28;20108;-82
2023/04/25 16:43:52;;;;;;;3.72;2.50;;;;;;;14.02;43.25;95455.16;5051840;28;20021;-81
2023/04/25 16:46:18;;;;;;;3.63;3.20;;;;;;;14.06;45.38;95452.19;5048428;28;20036;-82
2023/04/25 16:48:44;;;;;;;3.28;2.50;;;;;;;13.88;45.60;95438.16;5055305;28;20036;-83
2023/04/25 16:51:10;;;;;;;2.83;2.58;;;;;;;13.65;45.79;95447.78;5054608;28;20120;-86
2023/04/25 16:53:35;;;;;;;2.42;2.22;;;;;;;13.35;45.32;95440.31;5050365;28;20141;-79
2023/04/25 16:56:01;;;;;;;8.85;5.25;;;;;;;13.03;46.13;95452.53;5053797;28;20052;-86
2023/04/25 16:58:27;;;;;;;3.70;2.58;;;;;;;12.99;45.45;95451.22;5051529;28;20473;-83
2023/04/25 17:00:54;;;;;;;2.70;2.33;;;;;;;12.81;46.30;95454.81;5055081;28;20032;-84
2023/04/25 17:03:20;;;;;;;5.90;3.67;;;;;;;12.71;48.07;95462.88;5060733;28;20425;-82
2023/04/25 17:05:46;;;;;;;3.15;2.83;;;;;;;12.72;47.92;95453.16;5058643;28;20032;-82
2023/04/25 17:08:12;;;;;;;2.50;2.30;;;;;;;12.50;47.85;95454.56;5069051;28;20123;-85
2023/04/25 17:10:37;;;;;;;3.25;2.40;;;;;;;12.55;47.19;95457.53;5058231;28;20052;-76
2023/04/25 17:13:02;;;;;;;5.13;3.17;;;;;;;12.49;47.07;95469.59;5057925;28;20035;-80
2023/04/25 17:15:28;;;;;;;8.75;6.88;;;;;;;12.36;48.62;95469.19;5054299;28;20039;-82
2023/04/25 17:17:53;;;;;;;4.90;3.45;;;;;;;12.19;49.01;95474.38;5058208;28;20028;-77
2023/04/25 17:20:19;;;;;;;4.63;2.30;;;;;;;12.04;49.45;95477.59;5058133;28;20021;-78
2023/04/25 17:22:44;;;;;;;7.03;3.67;;;;;;;11.99;50.09;95474.56;5057988;28;20104;-77
2023/04/25 17:25:10;;;;;;;7.80;4.22;;;;;;;11.99;50.23;95485.13;5057572;28;20079;-75
2023/04/25 17:27:35;;;;;;;4.15;3.15;;;;;;;11.94;50.35;95476.84;5058312;28;20476;-75
2023/04/25 17:30:02;;;;;;;3.35;2.95;;;;;;;11.83;51.08;95487.69;5058086;28;20028;-74
2023/04/25 17:32:28;;;;;;;23.92;13.60;;;;;;;11.87;51.62;95487.19;5057807;28;20032;-74
2023/04/25 17:34:55;;;;;;;6.15;4.18;;;;;;;11.82;50.60;95478.94;5062358;28;20025;-75
2023/04/25 17:37:21;;;;;;;3.72;3.15;;;;;;;11.81;50.90;95484.34;5064490;28;20469;-74
2023/04/25 17:39:47;;;;;;;4.28;3.53;;;;;;;11.71;51.18;95487.06;5058111;28;20048;-73
2023/04/25 17:42:13;;;;;;;3.35;2.50;;;;;;;11.83;50.11;95485.84;5054497;28;20033;-72
2023/04/25 17:44:40;;;;;;;4.57;4.18;;;;;;;11.61;51.45;95484.56;5054319;28;20032;-73
2023/04/25 17:47:06;;;;;;;23.83;19.90;;;;;;;11.46;52.22;95490.38;5057186;28;20029;-84
2023/04/25 17:49:32;;;;;;;10.23;7.97;;;;;;;11.32;54.60;95493.53;5057921;28;20031;-74
2023/04/25 17:51:59;;;;;;;21.42;18.63;;;;;;;11.32;55.13;95496.16;5052369;28;20028;-74
2023/04/25 17:54:24;;;;;;;14.60;12.23;;;;;;;11.13;56.34;95499.78;5057864;28;20029;-75
2023/04/25 17:56:50;;;;;;;6.18;4.90;;;;;;;11.31;54.08;95495.34;5057547;28;20033;-74
2023/04/25 17:59:16;;;;;;;5.05;3.45;;;;;;;11.29;54.39;95499.13;5057743;28;20033;-74
2023/04/25 18:01:41;;;;;;;9.32;6.75;;;;;;;11.10;55.98;95498.28;5056993;28;20531;-74
2023/04/25 18:04:07;;;;;;;9.85;6.75;;;;;;;10.96;56.26;95507.53;5057191;28;20025;-73
2023/04/25 18:06:33;;;;;;;5.60;5.10;;;;;;;11.18;54.92;95511.56;5059062;28;20630;-76
2023/04/25 18:08:58;;;;;;;6.32;4.43;;;;;;;11.06;55.61;95507.47;5067879;28;20048;-79
2023/04/25 18:11:24;;;;;;;8.68;5.10;;;;;;;10.96;54.78;95509.34;5060161;28;20029;-80
2023/04/25 18:13:49;;;;;;;6.55;3.63;;;;;;;10.99;53.89;95509.03;5070720;28;20444;-80
2023/04/25 18:16:15;;;;;;;7.65;4.18;;;;;;;10.89;54.88;95509.91;5053246;28;20071;-76
2023/04/25 18:18:42;;;;;;;6.47;3.63;;;;;;;10.72;55.70;95513.34;5057326;28;20025;-78
2023/04/25 18:21:08;;;;;;;4.38;2.53;;;;;;;10.69;54.93;95522.38;5056340;28;20094;-76
2023/04/25 18:23:34;;;;;;;4.22;2.65;;;;;;;10.59;55.07;95519.81;5057037;28;20012;-80
2023/04/25 18:26:01;;;;;;;3.70;2.45;;;;;;;10.47;56.02;95515.69;5051608;28;20446;-80
2023/04/25 18:28:26;;;;;;;4.03;2.92;;;;;;;10.40;56.09;95514.59;5054225;28;20052;-77
2023/04/25 18:30:53;;;;;;;4.90;3.20;;;;;;;10.36;56.69;95502.72;5056530;28;20493;-76
2023/04/25 18:33:20;;;;;;;5.57;3.22;;;;;;;10.25;57.61;95503.72;5056716;28;20047;-75
2023/04/25 18:35:46;;;;;;;5.45;3.22;;;;;;;10.15;58.93;95509.81;5056581;28;20037;-73
2023/04/25 18:38:11;;;;;;;8.63;3.55;;;;;;;10.03;60.30;95508.34;5056204;28;20044;-82
2023/04/25 18:40:37;;;;;;;5.40;3.28;;;;;;;9.93;61.12;95521.53;5071650;28;20047;-74
2023/04/25 18:43:02;;;;;;;5.75;3.30;;;;;;;9.87;62.59;95524.75;5052919;28;20033;-76
2023/04/25 18:45:28;;;;;;;3.22;2.92;;;;;;;9.78;62.65;95529.03;5053405;28;20024;-76
2023/04/25 18:47:53;;;;;;;4.43;3.00;;;;;;;9.67;64.10;95537.06;5055780;28;20037;-74
2023/04/25 18:50:21;;;;;;;5.85;3.00;;;;;;;9.55;64.73;95537.22;5056217;28;20059;-75
2023/04/25 18:52:47;;;;;;;3.50;3.20;;;;;;;9.48;66.21;95540.53;5055734;28;20033;-74
2023/04/25 18:55:13;;;;;;;3.67;3.28;;;;;;;9.35;65.56;95531.13;5057437;28;20059;-75
2023/04/25 18:57:38;;;;;;;4.68;3.15;;;;;;;9.24;65.56;95539.16;5060740;28;20024;-75
2023/04/25 19:00:05;;;;;;;6.90;3.00;;;;;;;9.22;66.78;95535.84;5055950;28;20535;-81
2023/04/25 19:02:31;;;;;;;3.95;3.42;;;;;;;9.17;67.23;95542.34;5055736;28;20044;-76
2023/04/25 19:04:57;;;;;;;6.53;3.10;;;;;;;9.11;68.23;95550.75;5056017;28;20021;-75
2023/04/25 19:07:24;;;;;;;3.58;2.78;;;;;;;9.03;68.20;95554.06;5052474;28;20047;-79
2023/04/25 19:09:49;;;;;;;3.45;3.15;;;;;;;8.96;68.91;95546.88;5056278;28;20100;-79
2023/04/25 19:12:15;;;;;;;4.60;3.28;;;;;;;8.92;69.06;95548.09;5055957;28;20048;-74